• Join FlightAware (Why Join?)
  • Login
  • US Flag 
04:42PM EDT


 

Airport Tracker/Info


-or-


 

Live Flight TrackerFlight Track Log ✈ DAL268 ✈ 04-May-2013 ✈ KJFK - LLBG / TLV

Flight Track Log - Related Links

Times and Time Zones

All times are in EDT time to prevent confusion due to time zone crossing. See the DAL268 flight status page for this flight to view local times or setup timezone preferences in your user account.

Time Position Orientation Groundspeed Altitude Reporting Facility
EDT Latitude Longitude Course Direction KTS MPH feet Rate Location/Type
11:39PM 40.6300 -73.7760 123° Southeast 174 200 100  Level FlightAware
11:40PM 40.6140 -73.7510 130° Southeast 179 206 900 1,620 Climbing FlightAware
11:40PM 40.5970 -73.7370 148° Southeast 178 205 1,600 1,500 Climbing FlightAware
11:41PM 40.5760 -73.7180 146° Southeast 178 205 2,300 1,260 Climbing FlightAware
11:41PM 40.5590 -73.7000 141° Southeast 182 209 2,800 1,020 Climbing FlightAware
11:41PM 40.5530 -73.6870 121° Southeast 178 205 3,000 960 Climbing FlightAware
11:42PM 40.5520 -73.6760 97° East 180 207 3,200 780 Climbing FlightAware
11:42PM 40.5540 -73.6330 86° East 213 245 3,600 660 Climbing FlightAware
11:43PM 40.5540 -73.5990 90° East 239 275 3,900 1,200 Climbing FlightAware
11:43PM 40.5547 -73.5601 89° East 255 293 4,600 1,620 Climbing FlightAware ADS-B
11:43PM 40.5549 -73.5344 89° East 268 308 5,000 1,920 Climbing FlightAware ADS-B
11:43PM 40.5550 -73.5096 90° East 274 315 5,600 2,160 Climbing FlightAware ADS-B
11:44PM 40.5552 -73.4841 89° East 282 325 6,100 2,460 Climbing FlightAware ADS-B
11:44PM 40.5558 -73.4566 88° East 281 323 6,900 2,700 Climbing FlightAware ADS-B
11:44PM 40.5562 -73.4274 89° East 285 328 7,600 2,340 Climbing FlightAware ADS-B
11:45PM 40.5563 -73.3997 90° East 288 331 8,200 2,220 Climbing FlightAware ADS-B
11:45PM 40.5562 -73.3712 90° East 293 337 8,800 2,220 Climbing FlightAware ADS-B
11:45PM 40.5564 -73.3427 89° East 296 341 9,400 1,860 Climbing FlightAware ADS-B
11:46PM 40.5572 -73.2856 89° East 314 361 10,300 1,380 Climbing FlightAware ADS-B
11:46PM 40.5578 -73.2441 89° East 336 387 10,600 660 Climbing FlightAware ADS-B
11:46PM 40.5584 -73.2318 86° East 341 392 10,600 480 Level FlightAware ADS-B
11:46PM 40.5597 -73.2192 82° East 347 399 10,700 900 Climbing FlightAware ADS-B
11:46PM 40.5662 -73.1925 72° East 357 411 10,900 960 Climbing FlightAware ADS-B
11:47PM 40.5757 -73.1689 62° Northeast 367 422 11,100 1,080 Climbing FlightAware ADS-B
11:47PM 40.5873 -73.1494 52° Northeast 375 432 11,300 960 Climbing FlightAware ADS-B
11:47PM 40.5954 -73.1382 46° Northeast 379 436 11,400 1,380 Climbing FlightAware ADS-B
11:47PM 40.6156 -73.1181 37° Northeast 388 447 11,800 1,980 Climbing FlightAware ADS-B
11:47PM 40.6457 -73.0829 42° Northeast 395 455 12,600 1,980 Climbing FlightAware ADS-B
11:48PM 40.6842 -73.0273 48° Northeast 403 464 13,600 1,980 Climbing FlightAware ADS-B
11:48PM 40.7240 -72.9679 49° Northeast 411 473 14,700 1,980 Climbing FlightAware ADS-B
11:49PM 40.7636 -72.9091 48° Northeast 418 481 15,700 1,800 Climbing FlightAware ADS-B
11:50PM 40.8032 -72.8491 49° Northeast 425 489 16,600 1,800 Climbing FlightAware ADS-B
11:50PM 40.8439 -72.7882 49° Northeast 430 495 17,600 1,740 Climbing FlightAware ADS-B
11:51PM 40.8851 -72.7263 49° Northeast 439 505 18,400 1,560 Climbing FlightAware ADS-B
11:51PM 40.9267 -72.6653 48° Northeast 447 514 19,200 1,560 Climbing FlightAware ADS-B
11:52PM 40.9733 -72.5950 49° Northeast 452 520 20,100 1,560 Climbing FlightAware ADS-B
11:52PM 41.0151 -72.5323 49° Northeast 457 526 20,900 1,500 Climbing FlightAware ADS-B
11:53PM 41.0690 -72.4500 49° Northeast 462 532 21,900 1,440 Climbing FlightAware
11:54PM 41.1320 -72.3550 49° Northeast 467 537 23,000 1,260 Climbing FlightAware
11:55PM 41.2144 -72.2303 49° Northeast 456 525 24,300 1,200 Climbing Boston Center
11:56PM 41.3017 -72.0947 49° Northeast 462 532 25,600 1,200 Climbing Boston Center
11:57PM 41.3906 -71.9614 48° Northeast 467 537 26,700 1,200 Climbing Boston Center
11:58PM 41.4797 -71.8250 49° Northeast 467 537 28,000 1,380 Climbing Boston Center
11:59PM 41.5664 -71.6881 50° Northeast 478 550 29,500 1,380 Climbing Boston Center
12:00AM 41.6572 -71.5564 47° Northeast 478 550 30,800 660 Climbing Boston Center
12:01AM 41.7414 -71.4219 50° Northeast 468 539 30,900  Climbing Boston Center
12:02AM 41.8278 -71.2922 48° Northeast 463 533 30,900  Level Boston Center
12:08AM 42.3350 -70.4710 48° Northeast 482 555 31,000  Climbing FlightAware
12:08AM 42.3880 -70.3850 50° Northeast 482 555 31,000  Level FlightAware
12:09AM 42.4500 -70.2860 50° Northeast 481 554 31,000  Level FlightAware
12:10AM 42.5120 -70.1840 50° Northeast 480 552 31,000  Level FlightAware
12:10AM 42.5640 -70.0980 51° Northeast 480 552 31,000  Level FlightAware
12:11AM 42.6330 -69.9870 50° Northeast 479 551 31,000  Level FlightAware
12:12AM 42.6890 -69.8920 51° Northeast 478 550 31,000  Level FlightAware
12:12AM 42.7400 -69.8080 50° Northeast 477 549 31,000  Level FlightAware
12:13AM 42.8000 -69.7110 50° Northeast 472 543 31,000  Level FlightAware
12:14AM 42.8530 -69.6210 51° Northeast 472 543 31,000  Level FlightAware
12:15AM 42.9280 -69.4970 50° Northeast 473 544 31,000  Level FlightAware
12:15AM 42.9800 -69.4100 51° Northeast 473 544 31,000  Level FlightAware
12:16AM 43.0450 -69.3000 51° Northeast 479 551 31,000  Level FlightAware
12:17AM 43.1050 -69.2010 50° Northeast 474 545 31,000  Level FlightAware
12:18AM 43.1750 -69.0810 51° Northeast 475 547 31,000  Level FlightAware
12:18AM 43.2360 -68.9780 51° Northeast 474 545 31,000  Level FlightAware
12:19AM 43.2850 -68.8940 51° Northeast 475 547 31,000  Level FlightAware
12:20AM 43.3440 -68.7940 51° Northeast 474 545 31,000  Level FlightAware
12:20AM 43.4130 -68.6750 51° Northeast 475 547 31,000  Level FlightAware
12:21AM 43.4700 -68.5730 52° Northeast 475 547 31,000  Level FlightAware
12:25AM 43.8090 -67.9870 51° Northeast 471 542 31,000  Level FlightAware
12:26AM 43.8710 -67.8780 52° Northeast 470 541 31,000  Level FlightAware
12:27AM 43.9250 -67.7810 52° Northeast 469 540 31,000  Level FlightAware
12:27AM 43.9850 -67.6760 52° Northeast 472 543 31,000  Level FlightAware
12:28AM 44.0400 -67.5780 52° Northeast 473 544 31,000  Level FlightAware
12:29AM 44.0940 -67.4820 52° Northeast 475 547 31,000  Level FlightAware
12:29AM 44.1560 -67.3710 52° Northeast 476 548 31,000  Level FlightAware
12:30AM 44.2150 -67.2630 53° Northeast 477 549 31,000  Level FlightAware
12:31AM 44.2680 -67.1680 52° Northeast 479 551 31,000  Level FlightAware
12:32AM 44.3300 -67.0550 52° Northeast 481 554 31,000  Level FlightAware
12:32AM 44.3840 -66.9590 52° Northeast 482 555 31,000  Level FlightAware
12:33AM 44.4390 -66.8580 53° Northeast 483 556 31,000  Level FlightAware
12:34AM 44.5010 -66.7430 53° Northeast 483 556 31,000  Level FlightAware
12:34AM 44.5550 -66.6440 53° Northeast 483 556 31,000  Level FlightAware
12:35AM 44.6150 -66.5310 53° Northeast 484 557 31,000  Level FlightAware
12:36AM 44.6630 -66.4460 52° Northeast 484 557 31,000  Level FlightAware
12:36AM 44.7240 -66.3310 53° Northeast 484 557 31,000  Level FlightAware
12:37AM 44.7840 -66.2200 53° Northeast 484 557 31,000  Level FlightAware
12:38AM 44.8390 -66.1170 53° Northeast 483 556 31,000  Level FlightAware
12:39AM 44.8940 -66.0110 54° Northeast 482 555 31,000  Level FlightAware
12:39AM 44.9460 -65.9150 53° Northeast 482 555 31,000  Level FlightAware
12:40AM 45.0060 -65.7990 54° Northeast 482 555 31,000  Level FlightAware
12:45AM 45.3950 -65.0530 53° Northeast 478 550 31,000  Level FlightAware
12:46AM 45.4550 -64.9330 54° Northeast 476 548 31,000  Level FlightAware
12:46AM 45.5040 -64.8390 53° Northeast 476 548 31,000  Level FlightAware
12:47AM 45.5590 -64.7300 54° Northeast 477 549 31,000  Level FlightAware
12:48AM 45.6170 -64.6170 54° Northeast 479 551 31,000  Level FlightAware
12:48AM 45.6680 -64.5150 54° Northeast 480 552 31,000  Level FlightAware
12:49AM 45.7190 -64.4140 54° Northeast 480 552 31,000  Level FlightAware
12:50AM 45.7720 -64.3080 54° Northeast 481 554 31,000  Level FlightAware
12:51AM 45.8390 -64.1730 55° Northeast 481 554 31,000  Level FlightAware
12:51AM 45.8930 -64.0660 54° Northeast 484 557 31,000  Level FlightAware
12:52AM 45.9610 -63.9270 55° Northeast 484 557 31,000  Level FlightAware
12:53AM 46.0250 -63.8010 54° Northeast 484 557 31,000  Level FlightAware
12:54AM 46.0690 -63.7120 55° Northeast 484 557 31,000  Level FlightAware
12:54AM 46.1140 -63.6230 54° Northeast 484 557 31,000  Level FlightAware
12:55AM 46.1590 -63.5350 54° Northeast 484 557 31,000  Level FlightAware
12:56AM 46.2150 -63.4230 54° Northeast 484 557 31,000  Level FlightAware
12:56AM 46.2370 -63.3790 54° Northeast 484 557 31,000  Level FlightAware
12:57AM 46.2930 -63.2670 54° Northeast 484 557 31,000  Level FlightAware
12:58AM 46.3380 -63.1780 54° Northeast 484 557 31,000  Level FlightAware
12:58AM 46.3830 -63.0890 54° Northeast 484 557 31,000  Level FlightAware
12:59AM 46.4270 -63.0000 54° Northeast 484 557 31,000  Level FlightAware
01:00AM 46.4720 -62.9100 54° Northeast 484 557 31,000  Level FlightAware
01:00AM 46.5170 -62.8210 54° Northeast 484 557 31,000  Level FlightAware
01:01AM 46.6590 -62.4750 59° Northeast 499 574 31,000  Level FlightAware
01:02AM 46.7310 -62.3210 56° Northeast 498 573 31,000  Level FlightAware
01:03AM 46.7760 -62.2280 55° Northeast 498 573 31,000  Level FlightAware
01:04AM 46.8430 -62.0780 57° Northeast 497 572 31,000  Level FlightAware
01:04AM 46.8850 -61.9870 56° Northeast 497 572 31,000  Level FlightAware
01:05AM 46.9390 -61.8690 56° Northeast 497 572 31,000  Level FlightAware
01:06AM 46.9830 -61.7740 56° Northeast 497 572 31,000  Level FlightAware
01:06AM 47.0520 -61.6220 56° Northeast 499 574 31,000  Level FlightAware
01:07AM 47.1060 -61.5050 56° Northeast 499 574 31,000  Level FlightAware
01:08AM 47.1650 -61.3730 57° Northeast 500 575 31,000  Level FlightAware
01:08AM 47.2210 -61.2480 57° Northeast 499 574 31,000  Level FlightAware
01:09AM 47.2730 -61.1320 57° Northeast 498 573 31,000  Level FlightAware
01:10AM 47.3300 -61.0040 57° Northeast 497 572 31,000  Level FlightAware
01:11AM 47.3940 -60.8610 56° Northeast 497 572 31,000  Level FlightAware
01:11AM 47.4370 -60.7650 56° Northeast 497 572 31,000  Level FlightAware
01:12AM 47.4810 -60.6690 56° Northeast 497 572 31,000  Level FlightAware
01:13AM 47.5250 -60.5730 56° Northeast 497 572 31,000  Level FlightAware
01:13AM 47.5680 -60.4770 56° Northeast 497 572 31,000  Level FlightAware
01:14AM 47.6230 -60.3570 56° Northeast 497 572 31,000  Level FlightAware
01:15AM 47.6670 -60.2610 56° Northeast 497 572 31,000  Level FlightAware
01:16AM 47.7100 -60.1650 56° Northeast 497 572 31,000  Level FlightAware
01:16AM 47.7540 -60.0680 56° Northeast 497 572 31,000  Level FlightAware
01:17AM 47.7980 -59.9720 56° Northeast 497 572 31,000  Level FlightAware
01:18AM 47.8530 -59.8510 56° Northeast 497 572 31,000  Level FlightAware
01:18AM 47.9610 -59.5430 62° Northeast 496 571 31,000  Level FlightAware
01:19AM 48.0010 -59.4480 58° Northeast 496 571 31,000  Level FlightAware
01:20AM 48.0580 -59.3120 58° Northeast 31,000  Level FlightAware
01:20AM 48.1060 -59.1950 58° Northeast 496 571 31,000  Level FlightAware
01:21AM 48.1590 -59.0670 58° Northeast 496 571 31,000  Level FlightAware
01:22AM 48.1980 -58.9700 59° Northeast 496 571 31,000  Level FlightAware
01:23AM 48.2750 -58.7860 58° Northeast 496 571 31,000  Level FlightAware
01:24AM 48.3300 -58.6510 58° Northeast 496 571 31,000  Level FlightAware
01:25AM 48.3990 -58.4800 59° Northeast 497 572 31,000  Level FlightAware
01:25AM 48.4470 -58.3590 59° Northeast 497 572 31,000  Level FlightAware
01:26AM 48.4890 -58.2550 59° Northeast 498 573 31,000  Level FlightAware
01:27AM 48.5480 -58.1090 59° Northeast 497 572 31,000  Level FlightAware
01:28AM 48.6140 -57.9420 59° Northeast 498 573 31,000  Level FlightAware
01:28AM 48.6660 -57.8070 60° Northeast 499 574 31,000  Level FlightAware
01:29AM 48.7080 -57.6910 61° Northeast 500 575 31,000  Level FlightAware
01:30AM 48.7470 -57.5820 61° Northeast 499 574 31,000 720 Level FlightAware
01:30AM 48.7970 -57.4370 62° Northeast 497 572 32,000 660 Climbing FlightAware
01:31AM 48.8430 -57.2980 63° Northeast 494 568 32,000  Level FlightAware
01:32AM 48.8840 -57.1780 63° Northeast 492 566 32,000  Level FlightAware
01:32AM 48.9320 -57.0370 63° Northeast 490 564 32,000  Level FlightAware
01:33AM 48.9730 -56.9140 63° Northeast 490 564 32,000  Level FlightAware
01:34AM 49.0080 -56.8100 63° Northeast 489 563 32,000  Level FlightAware
01:34AM 49.0550 -56.6720 62° Northeast 488 562 32,000  Level FlightAware
01:35AM 49.1020 -56.5300 63° Northeast 487 560 32,000  Level FlightAware
01:36AM 49.1370 -56.4230 63° Northeast 487 560 32,000  Level FlightAware
01:37AM 49.1920 -56.2570 63° Northeast 488 562 32,000  Level FlightAware
01:37AM 49.2280 -56.1460 64° Northeast 488 562 32,000  Level FlightAware
01:38AM 49.2680 -56.0220 64° Northeast 488 562 32,000  Level FlightAware
01:39AM 49.3190 -55.8670 63° Northeast 488 562 32,000  Level FlightAware
01:39AM 49.3580 -55.7430 64° Northeast 487 560 32,000  Level FlightAware
01:40AM 49.3980 -55.6190 64° Northeast 488 562 32,000  Level FlightAware
01:41AM 49.4380 -55.4950 64° Northeast 489 563 32,000  Level FlightAware
01:42AM 49.4820 -55.3540 64° Northeast 489 563 32,000  Level FlightAware
01:42AM 49.5220 -55.2290 64° Northeast 490 564 32,000  Level FlightAware
01:43AM 49.5660 -55.0870 64° Northeast 491 565 32,000  Level FlightAware
01:44AM 49.6100 -54.9450 64° Northeast 492 566 32,000  Level FlightAware
01:44AM 49.6500 -54.8180 64° Northeast 492 566 32,000  Level FlightAware
01:45AM 49.6840 -54.7070 65° Northeast 493 567 32,000  Level FlightAware
01:46AM 49.7330 -54.5480 64° Northeast 495 570 32,000  Level FlightAware
01:47AM 49.7860 -54.3720 65° Northeast 494 568 32,000  Level FlightAware
01:47AM 49.8250 -54.2440 65° Northeast 495 570 32,000  Level FlightAware
01:48AM 49.8590 -54.1320 65° Northeast 496 571 32,000  Level FlightAware
01:49AM 49.9080 -53.9710 65° Northeast 497 572 32,000  Level FlightAware
01:50AM 49.9510 -53.8250 65° Northeast 498 573 32,000  Level FlightAware
01:50AM 49.9900 -53.6950 65° Northeast 499 574 32,000  Level FlightAware
01:51AM 50.0210 -53.5910 65° Northeast 499 574 32,000  Level FlightAware
01:52AM 50.0710 -53.4180 66° East 500 575 32,000  Level FlightAware
01:52AM 50.1070 -53.2960 65° Northeast 501 577 32,000  Level FlightAware
01:53AM 50.1430 -53.1710 66° East 502 578 32,000  Level FlightAware
01:54AM 50.1900 -53.0070 66° East 502 578 32,000  Level FlightAware
01:54AM 50.2270 -52.8780 66° East 502 578 32,000  Level FlightAware
01:55AM 50.2710 -52.7250 66° East 503 579 32,000  Level FlightAware
01:56AM 50.3030 -52.6090 67° East 503 579 32,000  Level FlightAware
01:56AM 50.3460 -52.4590 66° East 504 580 32,000  Level FlightAware
01:57AM 50.3870 -52.3120 66° East 505 581 32,000  Level FlightAware
01:58AM 50.4530 -52.0770 66° East 505 581 32,000  Level FlightAware
01:59AM 50.4850 -51.9630 66° East 505 581 32,000  Level FlightAware
02:00AM 50.5170 -51.8480 66° East 505 581 32,000  Level FlightAware
02:00AM 50.5490 -51.7340 66° East 505 581 32,000  Level FlightAware
02:01AM 50.5820 -51.6200 65° Northeast 505 581 32,000  Level FlightAware
02:02AM 50.6220 -51.4770 66° East 505 581 32,000  Level FlightAware
02:03AM 50.6540 -51.3630 66° East 505 581 32,000  Level FlightAware
02:03AM 50.6870 -51.2480 66° East 505 581 32,000  Level FlightAware
02:04AM 50.7190 -51.1340 66° East 505 581 32,000  Level FlightAware
02:05AM 50.7590 -50.9900 66° East 505 581 32,000  Level FlightAware
02:05AM 50.7920 -50.8750 66° East 505 581 32,000  Level FlightAware
02:06AM 50.8240 -50.7610 66° East 505 581 32,000  Level FlightAware
02:07AM 50.8560 -50.6460 66° East 505 581 32,000  Level FlightAware
02:07AM 50.8890 -50.5310 66° East 505 581 32,000  Level FlightAware
02:08AM 50.9833 -49.9833 66° East 520 598 32,000  Level Gander Center
02:09AM 51.0333 -49.8000 66° East 520 598 32,000  Level Gander Center
02:10AM 51.0667 -49.5667 77° East 510 587 32,000  Level Gander Center
02:11AM 51.1167 -49.3667 68° East 520 598 32,000  Level Gander Center
02:12AM 51.1833 -49.1333 65° Northeast 520 598 32,000  Level Gander Center
02:13AM 51.2167 -48.9333 75° East 510 587 32,000  Level Gander Center
02:14AM 51.0000 -50.0000 68° East 517 595 32,000  Level ETMS Enhanced Traffic Management System
02:21AM 51.6638 -47.2048 70° East 517 595 32,000  Level FlightAware Transoceanic
02:22AM 51.7121 -46.9864 70° East 517 595 32,000  Level FlightAware Transoceanic
02:23AM 51.7599 -46.7676 71° East 517 595 32,000  Level FlightAware Transoceanic
02:24AM 51.8074 -46.5483 71° East 517 595 32,000  Level FlightAware Transoceanic
02:25AM 51.8544 -46.3286 71° East 517 595 32,000  Level FlightAware Transoceanic
02:26AM 51.9011 -46.1084 71° East 517 595 32,000  Level FlightAware Transoceanic
02:27AM 51.9473 -45.8878 71° East 517 595 32,000  Level FlightAware Transoceanic
02:28AM 51.9931 -45.6667 71° East 517 595 32,000  Level FlightAware Transoceanic
02:29AM 52.0386 -45.4451 72° East 517 595 32,000  Level FlightAware Transoceanic
02:30AM 52.0835 -45.2232 72° East 517 595 32,000  Level FlightAware Transoceanic
02:31AM 52.1281 -45.0007 72° East 517 595 32,000  Level FlightAware Transoceanic
02:32AM 52.1723 -44.7778 72° East 517 595 32,000  Level FlightAware Transoceanic
02:33AM 52.2160 -44.5545 72° East 517 595 32,000  Level FlightAware Transoceanic
02:34AM 52.2593 -44.3307 73° East 517 595 32,000  Level FlightAware Transoceanic
02:35AM 52.3022 -44.1065 73° East 517 595 32,000  Level FlightAware Transoceanic
02:36AM 52.3446 -43.8819 73° East 517 595 32,000  Level FlightAware Transoceanic
02:37AM 52.3867 -43.6569 73° East 517 595 32,000  Level FlightAware Transoceanic
02:38AM 52.4283 -43.4314 73° East 517 595 32,000  Level FlightAware Transoceanic
02:39AM 52.4695 -43.2055 73° East 517 595 32,000  Level FlightAware Transoceanic
02:40AM 52.5102 -42.9791 74° East 517 595 32,000  Level FlightAware Transoceanic
02:41AM 52.5505 -42.7524 74° East 517 595 32,000  Level FlightAware Transoceanic
02:42AM 52.5904 -42.5252 74° East 517 595 32,000  Level FlightAware Transoceanic
02:43AM 52.6298 -42.2976 74° East 517 595 32,000  Level FlightAware Transoceanic
02:44AM 52.6688 -42.0697 74° East 517 595 32,000  Level FlightAware Transoceanic
02:45AM 52.7074 -41.8413 75° East 517 595 32,000  Level FlightAware Transoceanic
02:46AM 52.7455 -41.6125 75° East 517 595 32,000  Level FlightAware Transoceanic
02:47AM 52.7832 -41.3833 75° East 517 595 32,000  Level FlightAware Transoceanic
02:48AM 52.8205 -41.1537 75° East 517 595 32,000  Level FlightAware Transoceanic
02:49AM 52.8573 -40.9237 75° East 517 595 32,000  Level FlightAware Transoceanic
02:50AM 52.8936 -40.6934 75° East 517 595 32,000  Level FlightAware Transoceanic
02:51AM 52.9295 -40.4626 76° East 517 595 32,000  Level FlightAware Transoceanic
02:52AM 52.9650 -40.2315 76° East 517 595 32,000  Level FlightAware Transoceanic
02:53AM 52.9980 -40.0130 76° East  Level FlightAware Approximate
02:54AM 53.0307 -39.7942 76° East  Level FlightAware Approximate
02:55AM 53.0082 -39.8019 86° East  Level FlightAware Approximate
02:55AM 53.0000 -40.0000 86° East 541 623 32,000  Level ETMS Enhanced Traffic Management System
02:56AM 53.0170 -39.5770 86° East  Level FlightAware Approximate
02:57AM 53.0255 -39.3519 86° East  Level FlightAware Approximate
02:58AM 53.0335 -39.1268 87° East  Level FlightAware Approximate
02:59AM 53.0411 -38.9020 87° East  Level FlightAware Approximate
03:00AM 53.0482 -38.6770 87° East  Level FlightAware Approximate
03:01AM 53.0550 -38.4520 87° East  Level FlightAware Approximate
03:02AM 53.0732 -37.7531 88° East 541 623 32,000  Level FlightAware Transoceanic
03:03AM 53.0787 -37.5031 88° East 541 623 32,000  Level FlightAware Transoceanic
03:04AM 53.0837 -37.2529 88° East 541 623 32,000  Level FlightAware Transoceanic
03:05AM 53.0881 -37.0027 88° East 541 623 32,000  Level FlightAware Transoceanic
03:06AM 53.0921 -36.7525 89° East 541 623 32,000  Level FlightAware Transoceanic
03:07AM 53.0955 -36.5022 89° East 541 623 32,000  Level FlightAware Transoceanic
03:08AM 53.0984 -36.2519 89° East 541 623 32,000  Level FlightAware Transoceanic
03:09AM 53.1007 -36.0016 89° East 541 623 32,000  Level FlightAware Transoceanic
03:10AM 53.1026 -35.7512 89° East 541 623 32,000  Level FlightAware Transoceanic
03:11AM 53.1039 -35.5008 90° East 541 623 32,000  Level FlightAware Transoceanic
03:12AM 53.1047 -35.2504 90° East 541 623 32,000  Level FlightAware Transoceanic
03:13AM 53.1049 -35.0000 90° East 541 623 32,000  Level FlightAware Transoceanic
03:14AM 53.1047 -34.7496 90° East 541 623 32,000  Level FlightAware Transoceanic
03:15AM 53.1039 -34.4992 90° East 541 623 32,000  Level FlightAware Transoceanic
03:16AM 53.1026 -34.2488 91° East 541 623 32,000  Level FlightAware Transoceanic
03:17AM 53.1007 -33.9984 91° East 541 623 32,000  Level FlightAware Transoceanic
03:18AM 53.0984 -33.7481 91° East 541 623 32,000  Level FlightAware Transoceanic
03:19AM 53.0955 -33.4978 91° East 541 623 32,000  Level FlightAware Transoceanic
03:20AM 53.0921 -33.2475 91° East 541 623 32,000  Level FlightAware Transoceanic
03:21AM 53.0881 -32.9973 92° East 541 623 32,000  Level FlightAware Transoceanic
03:22AM 53.0837 -32.7471 92° East 541 623 32,000  Level FlightAware Transoceanic
03:23AM 53.0787 -32.4969 92° East 541 623 32,000  Level FlightAware Transoceanic
03:24AM 53.0732 -32.2469 92° East 541 623 32,000  Level FlightAware Transoceanic
03:25AM 53.0671 -31.9969 92° East 541 623 32,000  Level FlightAware Transoceanic
03:26AM 53.0606 -31.7470 93° East 541 623 32,000  Level FlightAware Transoceanic
03:27AM 53.0535 -31.4971 93° East 541 623 32,000  Level FlightAware Transoceanic
03:28AM 53.0459 -31.2473 93° East 541 623 32,000  Level FlightAware Transoceanic
03:29AM 53.0377 -30.9977 93° East 541 623 32,000  Level FlightAware Transoceanic
03:30AM 53.0291 -30.7481 93° East 541 623 32,000  Level FlightAware Transoceanic
03:31AM 53.0199 -30.4986 94° East 541 623 32,000  Level FlightAware Transoceanic
03:32AM 53.0102 -30.2493 94° East 541 623 32,000 120 Level FlightAware Transoceanic
03:33AM 53.0010 -30.0247 94° East  Level FlightAware Approximate
03:34AM 52.9914 -29.8003 94° East  Level FlightAware Approximate
03:35AM 53.0071 -29.8249 86° East  Level FlightAware Approximate
03:36AM 53.0157 -29.6003 86° East  Level FlightAware Approximate
03:37AM 53.0240 -29.3757 86° East  Level FlightAware Approximate
03:37AM 53.0000 -30.0000 86° East 515 593 33,000  Level ETMS Enhanced Traffic Management System
03:38AM 53.0318 -29.1509 87° East  Level FlightAware Approximate
03:39AM 53.0392 -28.9260 87° East  Level FlightAware Approximate
03:40AM 53.0462 -28.7011 87° East  Level FlightAware Approximate
03:41AM 53.0528 -28.4761 87° East  Level FlightAware Approximate
03:42AM 53.0589 -28.2510 87° East  Level FlightAware Approximate
03:43AM 53.0761 -27.6221 88° East 515 593 33,000  Level FlightAware Transoceanic
03:44AM 53.0811 -27.3839 88° East 515 593 33,000  Level FlightAware Transoceanic
03:45AM 53.0856 -27.1457 88° East 515 593 33,000  Level FlightAware Transoceanic
03:46AM 53.0897 -26.9074 88° East 515 593 33,000  Level FlightAware Transoceanic
03:47AM 53.0933 -26.6691 89° East 515 593 33,000  Level FlightAware Transoceanic
03:48AM 53.0964 -26.4307 89° East 515 593 33,000  Level FlightAware Transoceanic
03:49AM 53.0990 -26.1923 89° East 515 593 33,000  Level FlightAware Transoceanic
03:50AM 53.1011 -25.9539 89° East 515 593 33,000  Level FlightAware Transoceanic
03:51AM 53.1028 -25.7154 89° East 515 593 33,000  Level FlightAware Transoceanic
03:52AM 53.1040 -25.4770 90° East 515 593 33,000  Level FlightAware Transoceanic
03:53AM 53.1047 -25.2385 90° East 515 593 33,000  Level FlightAware Transoceanic
03:54AM 53.1049 -25.0000 90° East 515 593 33,000  Level FlightAware Transoceanic
03:55AM 53.1047 -24.7615 90° East 515 593 33,000  Level FlightAware Transoceanic
03:56AM 53.1040 -24.5230 90° East 515 593 33,000  Level FlightAware Transoceanic
03:57AM 53.1028 -24.2846 91° East 515 593 33,000  Level FlightAware Transoceanic
03:58AM 53.1011 -24.0461 91° East 515 593 33,000  Level FlightAware Transoceanic
03:59AM 53.0990 -23.8077 91° East 515 593 33,000  Level FlightAware Transoceanic
04:00AM 53.0964 -23.5693 91° East 515 593 33,000  Level FlightAware Transoceanic
04:01AM 53.0933 -23.3309 91° East 515 593 33,000  Level FlightAware Transoceanic
04:02AM 53.0897 -23.0926 92° East 515 593 33,000  Level FlightAware Transoceanic
04:03AM 53.0856 -22.8543 92° East 515 593 33,000  Level FlightAware Transoceanic
04:04AM 53.0811 -22.6161 92° East 515 593 33,000  Level FlightAware Transoceanic
04:05AM 53.0761 -22.3779 92° East 515 593 33,000  Level FlightAware Transoceanic
04:06AM 53.0706 -22.1397 92° East 515 593 33,000  Level FlightAware Transoceanic
04:07AM 53.0647 -21.9017 92° East 515 593 33,000  Level FlightAware Transoceanic
04:08AM 53.0583 -21.6637 93° East 515 593 33,000  Level FlightAware Transoceanic
04:09AM 53.0514 -21.4257 93° East 515 593 33,000  Level FlightAware Transoceanic
04:10AM 53.0440 -21.1879 93° East 515 593 33,000  Level FlightAware Transoceanic
04:11AM 53.0361 -20.9501 93° East 515 593 33,000  Level FlightAware Transoceanic
04:12AM 53.0278 -20.7124 93° East 515 593 33,000  Level FlightAware Transoceanic
04:13AM 53.0190 -20.4749 94° East 515 593 33,000  Level FlightAware Transoceanic
04:14AM 53.0097 -20.2374 94° East 515 593 33,000 60 Level FlightAware Transoceanic
04:15AM 53.0005 -20.0129 94° East  Level FlightAware Approximate
04:16AM 52.9909 -19.7885 94° East  Level FlightAware Approximate
04:17AM 52.9994 -19.8011 90° East  Level FlightAware Approximate
04:18AM 52.9983 -19.5765 90° East  Level FlightAware Approximate
04:19AM 52.9967 -19.3518 91° East  Level FlightAware Approximate
04:20AM 52.9948 -19.1272 91° East  Level FlightAware Approximate
04:21AM 52.9924 -18.9027 91° East  Level FlightAware Approximate
04:22AM 52.9896 -18.6781 91° East  Level FlightAware Approximate
04:23AM 52.9864 -18.4536 91° East  Level FlightAware Approximate
04:24AM 52.9827 -18.2291 91° East  Level FlightAware Approximate
04:25AM 52.9787 -18.0047 92° East  Level FlightAware Approximate
04:26AM 52.9742 -17.7803 92° East  Level FlightAware Approximate
04:27AM 52.9693 -17.5559 92° East  Level FlightAware Approximate
04:28AM 52.9639 -17.3316 92° East  Level FlightAware Approximate
04:29AM 52.9582 -17.1074 92° East  Level FlightAware Approximate
04:30AM 52.9520 -16.8832 93° East  Level FlightAware Approximate
04:31AM 52.9454 -16.6591 93° East  Level FlightAware Approximate
04:32AM 52.9384 -16.4350 93° East  Level FlightAware Approximate
04:33AM 52.9309 -16.2111 93° East  Level FlightAware Approximate
04:34AM 52.9231 -15.9872 93° East  Level FlightAware Approximate
04:35AM 52.9148 -15.7634 93° East  Level FlightAware Approximate
04:36AM 52.9061 -15.5397 94° East  Level FlightAware Approximate
04:37AM 52.8969 -15.3160 94° East  Level FlightAware Approximate
04:38AM 52.8874 -15.0925 94° East  Level FlightAware Approximate
04:39AM 52.8775 -14.8691 94° East  Level FlightAware Approximate
04:40AM 52.8671 -14.6458 94° East  Level FlightAware Approximate
04:41AM 52.8563 -14.4226 94° East  Level FlightAware Approximate
04:42AM 52.8451 -14.1995 95° East  Level FlightAware Approximate
04:43AM 52.8335 -13.9765 95° East  Level FlightAware Approximate
04:43AM 52.9380 -13.3880 95° East 503 579 35,000  Level FlightAware
04:43AM 52.9320 -13.2230 93° East 504 580 35,000  Level FlightAware
04:44AM 52.8215 -13.7536 95° East  Level FlightAware Approximate
04:45AM 52.9180 -12.8920 94° East 502 578 35,000  Level FlightAware
04:46AM 52.9110 -12.7430 94° East 501 577 35,000  Level FlightAware
04:46AM 52.9020 -12.5670 95° East 501 577 35,000  Level FlightAware
04:47AM 52.8940 -12.4140 95° East 502 578 35,000  Level FlightAware
04:48AM 52.8850 -12.2420 95° East 503 579 35,000  Level FlightAware
04:49AM 52.8720 -12.0350 96° East 503 579 35,000  Level FlightAware
04:49AM 52.8630 -11.8780 95° East 503 579 35,000  Level FlightAware
04:50AM 52.8520 -11.7060 96° East 502 578 35,000  Level FlightAware
04:53AM 52.7746 -11.1693 103° East  Level Estimated
04:54AM 52.7426 -10.9523 104° East  Level Estimated
04:55AM 52.7102 -10.7356 104° East  Level Estimated
04:56AM 52.6773 -10.5192 104° East  Level Estimated
04:57AM 52.6441 -10.3031 104° East  Level Estimated
04:58AM 52.6105 -10.0874 104° East  Level Estimated
04:59AM 52.5764 -9.8720 104° East  Level Estimated
05:00AM 52.5420 -9.6569 105° East  Level Estimated
05:01AM 52.5072 -9.4422 105° East  Level Estimated
05:01AM 52.5810 -9.2130 105° East 490 564 35,000  Level FlightAware
05:02AM 52.5640 -9.0670 101° East 488 562 35,000 -1,620 Level FlightAware
05:02AM 52.5520 -8.9760 101° East 490 564 33,400 -2,580 Descending FlightAware UK
05:03AM 52.5443 -8.9110 101° East 486 559 33,400 3,840 Level FlightAware UK
05:03AM 52.5440 -8.9080 101° East 487 560 35,000  Climbing FlightAware
05:03AM 52.5334 -8.8241 101° East 488 562 33,400 -2,760 Descending FlightAware UK
05:03AM 52.5252 -8.7587 102° East 486 559 33,400 4,140 Level FlightAware UK
05:03AM 52.5240 -8.7520 102° East 487 560 35,000  Climbing FlightAware
05:04AM 52.5143 -8.6718 102° East 486 559 33,400 -2,640 Descending FlightAware UK
05:04AM 52.5062 -8.6068 102° East 490 564 33,400 4,560 Level FlightAware UK
05:04AM 52.5060 -8.6110 102° East 487 560 35,000  Climbing FlightAware
05:04AM 52.4981 -8.5418 102° East 492 566 33,400 -2,940 Descending FlightAware UK
05:05AM 52.4898 -8.4770 102° East 494 568 33,400 3,180 Level FlightAware UK
05:05AM 52.4850 -8.4420 102° East 485 558 35,000  Climbing FlightAware
05:05AM 52.4758 -8.3690 102° East 492 566 33,400 -2,700 Descending FlightAware UK
05:05AM 52.4673 -8.3037 102° East 490 564 33,400 4,320 Level FlightAware UK
05:05AM 52.4670 -8.3030 102° East 482 555 35,000  Climbing FlightAware
05:06AM 52.4562 -8.2181 102° East 488 562 33,400 -2,580 Descending FlightAware UK
05:06AM 52.4478 -8.1540 102° East 486 559 33,400 4,800 Level FlightAware UK
05:06AM 52.4490 -8.1600 102° East 480 552 35,000  Climbing FlightAware
05:06AM 52.4393 -8.0900 102° East 484 557 33,400 -2,880 Descending FlightAware UK
05:07AM 52.4312 -8.0259 102° East 484 557 33,400 3,960 Level FlightAware UK
05:07AM 52.4310 -8.0290 102° East 480 552 35,000  Climbing FlightAware
05:07AM 52.4199 -7.9408 102° East 486 559 33,400 -2,700 Descending FlightAware UK
05:07AM 52.4115 -7.8769 102° East 484 557 33,400 3,540 Level FlightAware UK
05:07AM 52.4090 -7.8620 102° East 480 552 35,000  Climbing FlightAware
05:08AM 52.4001 -7.7919 102° East 482 555 33,400 -2,940 Descending FlightAware UK
05:08AM 52.3915 -7.7281 102° East 482 555 33,400 3,840 Level FlightAware UK
05:08AM 52.3900 -7.7160 102° East 481 554 35,000  Climbing FlightAware
05:08AM 52.3800 -7.6430 102° East 484 557 33,400 -2,760 Descending FlightAware UK
05:09AM 52.3713 -7.5791 103° East 484 557 33,400 3,420 Level FlightAware UK
05:09AM 52.3670 -7.5560 103° East 482 555 35,000  Climbing FlightAware
05:09AM 52.3568 -7.4725 103° East 486 559 33,400 -2,580 Descending FlightAware UK
05:10AM 52.3479 -7.4084 103° East 486 559 33,400 3,840 Level FlightAware UK
05:10AM 52.3450 -7.3920 103° East 484 557 35,000  Climbing FlightAware
05:10AM 52.3360 -7.3229 103° East 488 562 33,400  Descending FlightAware UK
05:10AM 52.3300 -7.2820 103° East 483 556 35,000  Climbing FlightAware
05:10AM 52.3271 -7.2586 103° East 486 559 33,400 -5,700 Descending FlightAware UK
05:10AM 52.3210 -7.2159 103° East 486 559 33,400  Level FlightAware UK
05:11AM 52.3120 -7.1518 103° East 488 562 33,400 2,880 Level FlightAware UK
05:11AM 52.3060 -7.1070 103° East 482 555 35,000  Climbing FlightAware
05:11AM 52.2969 -7.0445 103° East 486 559 33,400 -2,940 Descending FlightAware UK
05:12AM 52.2880 -6.9807 103° East 484 557 33,400 3,180 Level FlightAware UK
05:12AM 52.2830 -6.9480 103° East 480 552 35,000  Climbing FlightAware
05:12AM 52.2729 -6.8750 103° East 486 559 33,400 -2,700 Descending FlightAware UK
05:12AM 52.2637 -6.8116 103° East 486 559 33,400 4,320 Level FlightAware UK
05:12AM 52.2630 -6.8080 103° East 481 554 35,000  Climbing FlightAware
05:13AM 52.2515 -6.7271 103° East 486 559 33,400 -2,580 Descending FlightAware UK
05:13AM 52.2424 -6.6637 103° East 484 557 33,400 3,840 Level FlightAware UK
05:13AM 52.2400 -6.6450 103° East 482 555 35,000  Climbing FlightAware
05:13AM 52.2302 -6.5790 103° East 488 562 33,400 -2,760 Descending FlightAware UK
05:14AM 52.2210 -6.5153 103° East 490 564 33,400 4,140 Level FlightAware UK
05:14AM 52.2200 -6.5110 103° East 484 557 35,000  Climbing FlightAware
05:14AM 52.2086 -6.4304 103° East 490 564 33,400 -2,640 Descending FlightAware UK
05:14AM 52.1993 -6.3668 103° East 488 562 33,400 4,560 Level FlightAware UK
05:14AM 52.1990 -6.3660 103° East 483 556 35,000  Climbing FlightAware
05:15AM 52.1898 -6.3032 103° East 488 562 33,400 -2,940 Descending FlightAware UK
05:15AM 52.1802 -6.2397 104° East 490 564 33,400 3,180 Level FlightAware UK
05:15AM 52.1750 -6.2070 104° East 481 554 35,000  Climbing FlightAware
05:16AM 52.1643 -6.1341 104° East 492 566 33,400 -2,700 Descending FlightAware UK
05:16AM 52.1546 -6.0710 104° East 492 566 33,400 3,540 Level FlightAware UK
05:16AM 52.1510 -6.0490 104° East 478 550 35,000  Climbing FlightAware
05:16AM 52.1419 -5.9871 104° East 490 564 33,400 -2,940 Descending FlightAware UK
05:17AM 52.1323 -5.9237 104° East 490 564 33,400 4,800 Level FlightAware UK
05:17AM 52.1330 -5.9270 104° East 475 547 35,000  Climbing FlightAware
05:17AM 52.1229 -5.8613 104° East 486 559 33,400 -2,880 Descending FlightAware UK
05:17AM 52.1135 -5.7992 104° East 486 559 33,400 3,300 Level FlightAware UK
05:17AM 52.1080 -5.7680 104° East 475 547 35,000  Climbing FlightAware
05:18AM 52.0982 -5.6957 104° East 486 559 33,400 -2,640 Descending FlightAware UK
05:18AM 52.0919 -5.6321 99° East 486 559 33,400 4,560 Level FlightAware UK
05:18AM 52.0910 -5.6280 99° East 476 548 35,000  Climbing FlightAware
05:18AM 52.0849 -5.5687 99° East 486 559 33,400 -2,940 Descending FlightAware UK
05:19AM 52.0778 -5.5054 100° East 486 559 33,400 3,180 Level FlightAware UK
05:19AM 52.0740 -5.4730 100° East 477 549 35,000  Climbing FlightAware
05:19AM 52.0632 -5.3790 100° East 486 559 33,400  Descending FlightAware UK
05:19AM 52.0570 -5.3330 100° East 476 548 35,000  Climbing FlightAware
05:20AM 52.0477 -5.2527 100° East 486 559 33,400  Descending FlightAware UK
05:20AM 52.0400 -5.1930 100° East 476 548 35,000  Climbing FlightAware
05:21AM 52.0265 -5.0848 100° East 486 559 33,400  Descending FlightAware UK
05:21AM 52.0210 -5.0390 100° East 476 548 35,000  Climbing FlightAware
05:21AM 52.0105 -4.9590 100° East 488 562 33,400 -2,640 Descending FlightAware UK
05:21AM 52.0028 -4.8961 101° East 488 562 33,400 4,560 Level FlightAware UK
05:21AM 52.0030 -4.8990 101° East 475 547 35,000  Climbing FlightAware
05:22AM 51.9928 -4.8121 101° East 488 562 33,400  Descending FlightAware UK
05:22AM 51.9860 -4.7590 101° East 474 545 35,000  Climbing FlightAware
05:22AM 51.9774 -4.6857 101° East 488 562 33,400 -2,760 Descending FlightAware UK
05:23AM 51.9695 -4.6230 102° East 486 559 33,400 3,420 Level FlightAware UK
05:23AM 51.9670 -4.6020 102° East 474 545 35,000  Climbing FlightAware
05:23AM 51.9539 -4.4978 102° East 484 557 33,400  Descending FlightAware UK
05:23AM 51.9509 -4.4771 102° East 475 547 35,000  Climbing FlightAware ADS-B
05:24AM 51.9434 -4.4143 102° East 486 559 33,400  Descending FlightAware UK
05:24AM 51.9272 -4.2889 102° East 476 548 35,000  Climbing FlightAware ADS-B
05:25AM 51.9194 -4.2263 102° East 490 564 33,400  Descending FlightAware UK
05:25AM 51.9070 -4.1325 102° East 476 548 35,000  Climbing FlightAware ADS-B
05:25AM 51.8976 -4.0584 102° East 490 564 33,400  Descending FlightAware UK
05:26AM 51.8910 -4.0070 102° East 475 547 35,000 1,680 Climbing FlightAware
05:26AM 51.8720 -3.8680 102° East 474 545 35,000  Level FlightAware
05:27AM 51.8530 -3.7160 101° East 474 545 35,000 -1,560 Level FlightAware
05:27AM 51.8428 -3.6423 101° East 488 562 33,400 -2,700 Descending FlightAware UK
05:28AM 51.8346 -3.5799 102° East 488 562 33,400 4,320 Level FlightAware UK
05:28AM 51.8340 -3.5770 102° East 474 545 35,000  Climbing FlightAware
05:28AM 51.8205 -3.4755 102° East 488 562 33,400  Descending FlightAware UK
05:28AM 51.8157 -3.4426 102° East 474 545 35,000  Climbing FlightAware ADS-B
05:29AM 51.8036 -3.3512 102° East 488 562 33,400  Descending FlightAware UK
05:29AM 51.8005 -3.3321 102° East 474 545 35,000  Climbing FlightAware ADS-B
05:29AM 51.7894 -3.2478 102° East 486 559 33,400  Descending FlightAware UK
05:30AM 51.7820 -3.1946 102° East 473 544 35,000 2,040 Climbing FlightAware ADS-B
05:30AM 51.7668 -3.0879 103° East 473 544 35,000 -1,920 Level FlightAware ADS-B
05:30AM 51.7580 -3.0200 103° East 488 562 33,400  Descending FlightAware UK
05:31AM 51.7522 -2.9811 103° East 474 545 35,000  Climbing FlightAware ADS-B
05:31AM 51.7435 -2.9168 103° East 490 564 33,400  Descending FlightAware UK
05:31AM 51.7366 -2.8677 103° East 474 545 35,000  Climbing FlightAware ADS-B
05:31AM 51.7289 -2.8129 103° East 490 564 33,400  Descending FlightAware UK
05:32AM 51.7218 -2.7646 103° East 473 544 35,000  Climbing FlightAware ADS-B
05:32AM 51.7144 -2.7099 103° East 488 562 33,400  Descending FlightAware UK
05:32AM 51.7054 -2.6481 103° East 472 543 35,000 1,920 Climbing FlightAware ADS-B
05:33AM 51.6907 -2.5456 103° East 472 543 35,000  Level FlightAware ADS-B
05:33AM 51.6753 -2.4396 103° East 471 542 35,000  Level FlightAware ADS-B
05:34AM 51.6622 -2.3363 102° East 473 544 35,000 -2,100 Level FlightAware ADS-B
05:34AM 51.6571 -2.2769 102° East 488 562 33,400  Descending FlightAware UK
05:34AM 51.6526 -2.2285 102° East 473 544 35,000  Climbing FlightAware ADS-B
05:35AM 51.6480 -2.1719 102° East 490 564 33,400  Descending FlightAware UK
05:35AM 51.6429 -2.1176 102° East 472 543 35,000  Climbing FlightAware ADS-B
05:35AM 51.6366 -2.0472 102° East 492 566 33,400  Descending FlightAware UK
05:35AM 51.6322 -2.0069 102° East 470 541 35,000  Climbing FlightAware ADS-B
05:36AM 51.6261 -1.9438 102° East 490 564 33,400  Descending FlightAware UK
05:36AM 51.6216 -1.9037 102° East 469 540 35,000  Climbing FlightAware ADS-B
05:36AM 51.6153 -1.8408 102° East 490 564 33,400  Descending FlightAware UK
05:36AM 51.6107 -1.7975 102° East 468 539 35,000  Climbing FlightAware ADS-B
05:37AM 51.6043 -1.7374 102° East 490 564 33,400  Descending FlightAware UK
05:37AM 51.5990 -1.6880 102° East 467 537 35,000  Climbing FlightAware ADS-B
05:37AM 51.5936 -1.6348 102° East 490 564 33,400  Descending FlightAware UK
05:37AM 51.5887 -1.5855 102° East 466 536 35,000 2,040 Climbing FlightAware ADS-B
05:38AM 51.5783 -1.4793 99° East 466 536 35,000 -1,920 Level FlightAware ADS-B
05:38AM 51.5718 -1.4087 99° East 488 562 33,400  Descending FlightAware UK
05:38AM 51.5681 -1.3736 99° East 466 536 35,000 2,280 Climbing FlightAware ADS-B
05:39AM 51.5576 -1.2680 99° East 466 536 35,000 -1,980 Level FlightAware ADS-B
05:39AM 51.5515 -1.2043 99° East 488 562 33,400  Descending FlightAware UK
05:39AM 51.5471 -1.1624 99° East 466 536 35,000  Climbing FlightAware ADS-B
05:40AM 51.5388 -1.0809 99° East 488 562 33,400  Descending FlightAware UK
05:40AM 51.5359 -1.0532 99° East 465 535 35,000 2,460 Climbing FlightAware ADS-B
05:40AM 51.5254 -0.9514 99° East 465 535 35,000  Level FlightAware ADS-B
05:41AM 51.5146 -0.8495 100° East 464 534 35,000 -1,920 Level FlightAware ADS-B
05:41AM 51.5071 -0.7747 100° East 490 564 33,400  Descending FlightAware UK
05:42AM 51.5036 -0.7443 100° East 463 533 35,000 2,340 Climbing FlightAware ADS-B
05:42AM 51.4927 -0.6399 99° East 462 532 35,000  Level FlightAware ADS-B
05:43AM 51.4820 -0.5386 100° East 462 532 35,000  Level FlightAware ADS-B
05:43AM 51.4710 -0.4374 100° East 462 532 35,000  Level FlightAware ADS-B
05:44AM 51.4597 -0.3332 100° East 461 531 35,000  Level FlightAware ADS-B
05:44AM 51.4485 -0.2293 100° East 460 529 35,000 -1,800 Level FlightAware ADS-B
05:44AM 51.4395 -0.1476 100° East 490 564 33,400  Descending FlightAware UK
05:45AM 51.4373 -0.1256 100° East 459 528 35,000 2,580 Climbing FlightAware ADS-B
05:45AM 51.4259 -0.0254 100° East 457 526 35,000  Level FlightAware ADS-B
05:46AM 51.4145 0.0776 100° East 456 525 35,000  Level FlightAware ADS-B
05:46AM 51.4029 0.1803 100° East 455 524 35,000 -1,860 Level FlightAware ADS-B
05:46AM 51.3948 0.2526 100° East 488 562 33,400  Descending FlightAware UK
05:47AM 51.3901 0.2927 100° East 454 522 35,000  Climbing FlightAware ADS-B
05:47AM 51.3835 0.3516 100° East 486 559 33,400  Descending FlightAware UK
05:47AM 51.3780 0.3982 100° East 454 522 35,000  Climbing FlightAware ADS-B
05:48AM 51.3697 0.4703 100° East 488 562 33,400  Descending FlightAware UK
05:48AM 51.3664 0.4971 100° East 453 521 35,000 2,460 Climbing FlightAware ADS-B
05:48AM 51.3549 0.5961 100° East 454 522 35,000 -2,160 Level FlightAware ADS-B
05:48AM 51.3489 0.6486 100° East 486 559 33,400  Descending FlightAware UK
05:49AM 51.3431 0.6948 100° East 454 522 35,000 2,040 Climbing FlightAware ADS-B
05:49AM 51.3312 0.7967 101° East 454 522 35,000 -2,100 Level FlightAware ADS-B
05:49AM 51.3254 0.8467 101° East 486 559 33,400  Descending FlightAware UK
05:50AM 51.3188 0.8988 101° East 455 524 35,000  Climbing FlightAware ADS-B
05:50AM 51.3088 0.9851 101° East 488 562 33,400  Descending FlightAware UK
05:50AM 51.3056 1.0109 101° East 455 524 35,000 4,140 Climbing FlightAware ADS-B
05:51AM 51.2976 1.0596 105° East 456 525 35,000 -2,880 Level FlightAware ADS-B
05:51AM 51.2818 1.1200 105° East 488 562 33,400  Descending FlightAware UK
05:51AM 51.2717 1.1558 105° East 458 527 35,000 2,280 Climbing FlightAware ADS-B
05:52AM 51.2458 1.2484 114° Southeast 458 527 35,000 -1,800 Level FlightAware ADS-B
05:52AM 51.2266 1.3244 114° Southeast 490 564 33,400  Descending FlightAware UK
05:52AM 51.2190 1.3550 114° Southeast 457 526 35,000  Climbing FlightAware
05:52AM 51.2032 1.4183 114° Southeast 488 562 33,400  Descending FlightAware UK
05:53AM 51.1840 1.4810 114° Southeast 457 526 35,000  Climbing FlightAware
05:53AM 51.1661 1.5476 114° Southeast 488 562 33,400 -2,700 Descending FlightAware UK
05:53AM 51.1503 1.6028 114° Southeast 488 562 33,400 3,540 Level FlightAware UK
05:54AM 51.1450 1.6220 114° Southeast 457 526 35,000  Climbing FlightAware
05:54AM 51.1244 1.6949 114° Southeast 490 564 33,400  Descending FlightAware UK
05:54AM 51.1070 1.7580 114° Southeast 457 526 35,000  Climbing FlightAware
05:55AM 51.0880 1.8243 114° Southeast 490 564 33,400 -2,700 Descending FlightAware UK
05:55AM 51.0726 1.8788 114° Southeast 490 564 33,400 4,320 Level FlightAware UK
05:55AM 51.0710 1.8830 114° Southeast 457 526 35,000  Climbing FlightAware
05:55AM 51.0517 1.9528 114° Southeast 490 564 33,400  Descending FlightAware UK
05:56AM 51.0410 1.9870 114° Southeast 456 525 35,000 2,280 Climbing FlightAware
05:56AM 51.0153 2.0782 114° Southeast 457 526 35,000 -1,680 Level FlightAware ADS-B
05:57AM 50.9836 2.1909 114° Southeast 488 562 33,400  Descending FlightAware UK
05:57AM 50.9667 2.2483 114° Southeast 456 525 35,000  Climbing FlightAware ADS-B
05:57AM 50.9469 2.3174 114° Southeast 490 564 33,400  Descending FlightAware UK
05:58AM 50.9280 2.3810 114° Southeast 454 522 35,000  Climbing FlightAware
05:58AM 50.9096 2.4449 114° Southeast 490 564 33,400  Descending FlightAware UK
05:58AM 50.9011 2.4718 114° Southeast 454 522 35,000  Climbing FlightAware ADS-B
05:58AM 50.8882 2.5178 114° Southeast 490 564 33,400 -3,000 Descending FlightAware UK
05:59AM 50.8724 2.5713 115° Southeast 490 564 33,400  Level FlightAware UK
05:59AM 50.8568 2.6255 115° Southeast 490 564 33,400 3,660 Level FlightAware UK
05:59AM 50.8540 2.6340 115° Southeast 453 521 35,000  Climbing FlightAware
05:59AM 50.8355 2.6981 115° Southeast 488 562 33,400 -2,760 Descending FlightAware UK
06:00AM 50.8194 2.7518 115° Southeast 490 564 33,400 4,140 Level FlightAware UK
06:00AM 50.8170 2.7600 115° Southeast 452 520 35,000  Climbing FlightAware
06:01AM 50.7768 2.8951 115° Southeast 488 562 33,400  Descending FlightAware UK
06:01AM 50.7770 2.8940 115° Southeast 451 519 35,000  Climbing FlightAware
06:01AM 50.7554 2.9666 115° Southeast 488 562 33,400  Descending FlightAware UK
06:01AM 50.7430 3.0050 115° Southeast 451 519 35,000  Climbing FlightAware
06:02AM 50.7233 3.0737 115° Southeast 490 564 33,400  Descending FlightAware UK
06:02AM 50.7010 3.1440 115° Southeast 451 519 35,000  Climbing FlightAware
06:02AM 50.6751 3.2348 115° Southeast 490 564 33,400  Descending FlightAware UK
06:03AM 50.6670 3.2600 115° Southeast 450 518 35,000  Climbing FlightAware
06:03AM 50.6374 3.3591 115° Southeast 490 564 33,400  Descending FlightAware UK
06:03AM 50.6270 3.3930 115° Southeast 449 517 35,000  Climbing FlightAware
06:04AM 50.6054 3.4653 115° Southeast 490 564 33,400  Descending FlightAware UK
06:04AM 50.5910 3.5110 115° Southeast 448 516 35,000  Climbing FlightAware
06:04AM 50.5679 3.5888 115° Southeast 490 564 33,400  Descending FlightAware UK
06:05AM 50.5620 3.6050 115° Southeast 447 514 35,000  Climbing FlightAware
06:05AM 50.5409 3.6763 115° Southeast 488 562 33,400  Descending FlightAware UK
06:05AM 50.5250 3.7240 115° Southeast 446 513 35,000  Climbing FlightAware
06:06AM 50.4811 3.8682 115° Southeast 488 562 33,400  Descending FlightAware UK
06:06AM 50.4790 3.8730 115° Southeast 446 513 35,000 2,040 Climbing FlightAware
06:07AM 50.4430 3.9920 115° Southeast 447 514 35,000  Level FlightAware
06:08AM 50.4010 4.1260 116° Southeast 447 514 35,000 -1,260 Level FlightAware
06:08AM 50.3661 4.2336 116° Southeast 1 1 33,400  Descending FlightAware UK
06:08AM 50.3700 4.2250 116° Southeast 447 514 35,000  Climbing FlightAware
06:08AM 50.3501 4.2867 116° Southeast 1 1 33,400 -2,760 Descending FlightAware UK
06:09AM 50.3333 4.3382 117° Southeast 1 1 33,400 3,420 Level FlightAware UK
06:09AM 50.3280 4.3580 117° Southeast 447 514 35,000 1,740 Climbing FlightAware
06:10AM 50.2890 4.4790 117° Southeast 446 513 35,000 -1,560 Level FlightAware
06:10AM 50.2676 4.5468 117° Southeast 1 1 33,400  Descending FlightAware UK
06:10AM 50.2510 4.6010 117° Southeast 446 513 35,000  Climbing FlightAware
06:11AM 50.2169 4.7004 117° Southeast 1 1 33,400  Descending FlightAware UK
06:11AM 50.2070 4.7360 117° Southeast 446 513 35,000 1,740 Climbing FlightAware
06:12AM 50.1700 4.8500 117° Southeast 444 511 35,000  Level FlightAware
06:12AM 50.1350 4.9590 117° Southeast 443 510 35,000  Level FlightAware
06:13AM 50.0930 5.0900 117° Southeast 443 510 35,000  Level FlightAware
06:14AM 50.0570 5.1980 117° Southeast 442 509 35,000  Level FlightAware
06:15AM 50.0200 5.3140 116° Southeast 443 510 35,000  Level FlightAware
06:15AM 49.9750 5.4470 118° Southeast 443 510 35,000  Level FlightAware
06:16AM 49.9390 5.5580 117° Southeast 443 510 35,000  Level FlightAware
06:17AM 49.9010 5.6730 117° Southeast 443 510 35,000  Level FlightAware
06:17AM 49.8540 5.8140 117° Southeast 443 510 35,000  Level FlightAware
06:18AM 49.8220 5.9100 117° Southeast 443 510 35,000  Level FlightAware
06:19AM 49.7780 6.0400 118° Southeast 445 512 35,000  Level FlightAware
06:20AM 49.7360 6.1640 118° Southeast 445 512 35,000  Level FlightAware
06:20AM 49.6980 6.2740 118° Southeast 447 514 35,000  Level FlightAware
06:21AM 49.6350 6.4420 120° Southeast 450 518 35,000  Level FlightAware
06:22AM 49.5810 6.5640 124° Southeast 450 518 35,000  Level FlightAware
06:23AM 49.5360 6.6680 124° Southeast 450 518 35,000  Level FlightAware
06:24AM 49.4720 6.8190 123° Southeast 452 520 35,000  Level FlightAware
06:24AM 49.4250 6.9290 123° Southeast 450 518 35,000  Level FlightAware
06:25AM 49.3720 7.0500 124° Southeast 459 528 35,000  Level FlightAware
06:26AM 49.3250 7.1550 124° Southeast 462 532 35,000  Level FlightAware
06:26AM 49.2800 7.2580 124° Southeast 461 531 35,000  Level FlightAware
06:27AM 49.2240 7.3810 125° Southeast 465 535 35,000  Level FlightAware
06:28AM 49.1730 7.4940 125° Southeast 468 539 35,000  Level FlightAware
06:29AM 49.1160 7.6210 124° Southeast 471 542 35,000  Level FlightAware
06:29AM 49.0700 7.7230 125° Southeast 471 542 35,000  Level FlightAware
06:30AM 49.0150 7.8440 125° Southeast 477 549 35,000  Level FlightAware
06:31AM 48.9590 7.9650 125° Southeast 477 549 35,000  Level FlightAware
06:31AM 48.9080 8.0780 124° Southeast 477 549 35,000  Level FlightAware
06:32AM 48.8570 8.1910 124° Southeast 477 549 35,000  Level FlightAware
06:33AM 48.7990 8.3110 126° Southeast 477 549 35,000  Level FlightAware
06:33AM 48.7410 8.4100 132° Southeast 478 550 35,000  Level FlightAware
06:34AM 48.6750 8.5020 137° Southeast 479 551 35,000  Level FlightAware
06:37AM 48.5060 8.9357 120° Southeast  Level Estimated
06:38AM 48.4370 9.1107 121° Southeast  Level Estimated
06:39AM 48.3678 9.2852 121° Southeast  Level Estimated
06:40AM 48.2983 9.4593 121° Southeast  Level Estimated
06:40AM 48.1300 9.2650 121° Southeast 477 549 35,000  Level FlightAware
06:40AM 48.0760 9.3380 138° Southeast 476 548 35,000  Level FlightAware
06:41AM 47.9950 9.4510 137° Southeast 476 548 35,000  Level FlightAware
06:42AM 47.9330 9.5350 138° Southeast 475 547 35,000  Level FlightAware
06:42AM 47.8610 9.6320 138° Southeast 473 544 35,000  Level FlightAware
06:43AM 47.7880 9.7310 138° Southeast 474 545 35,000  Level FlightAware
06:44AM 47.7340 9.8050 137° Southeast 474 545 35,000  Level FlightAware
06:45AM 47.6630 9.9100 135° Southeast 477 549 35,000  Level FlightAware
06:45AM 47.6040 10.0050 133° Southeast 477 549 35,000  Level FlightAware
06:46AM 47.5390 10.1040 134° Southeast 477 549 35,000  Level FlightAware
06:47AM 47.4680 10.2150 133° Southeast 476 548 35,000  Level FlightAware
06:47AM 47.4040 10.3140 134° Southeast 476 548 35,000  Level FlightAware
06:48AM 47.3420 10.4100 134° Southeast 477 549 35,000  Level FlightAware
06:49AM 47.2910 10.4850 135° Southeast 478 550 35,000  Level FlightAware
06:50AM 47.2100 10.6090 134° Southeast 479 551 35,000  Level FlightAware
06:50AM 47.1530 10.6950 134° Southeast 479 551 35,000  Level FlightAware
06:51AM 47.0890 10.7930 134° Southeast 478 550 35,000  Level FlightAware
06:52AM 47.0060 10.9180 134° Southeast 473 544 35,000  Level FlightAware
06:52AM 46.9620 10.9860 133° Southeast 479 551 35,000  Level FlightAware
06:53AM 46.8350 11.1730 135° Southeast 478 550 35,000  Level FlightAware
06:54AM 46.7650 11.2790 134° Southeast 478 550 35,000  Level FlightAware
06:55AM 46.7040 11.3680 135° Southeast 478 550 35,000  Level FlightAware
06:56AM 46.6420 11.4600 134° Southeast 478 550 35,000  Level FlightAware
06:56AM 46.5800 11.5510 135° Southeast 479 551 35,000  Level FlightAware
06:57AM 46.5110 11.6520 135° Southeast 478 550 35,000  Level FlightAware
06:58AM 46.4500 11.7410 135° Southeast 478 550 35,000  Level FlightAware
06:58AM 46.3760 11.8500 135° Southeast 479 551 35,000  Level FlightAware
06:59AM 46.3140 11.9380 136° Southeast 480 552 35,000  Level FlightAware
07:00AM 46.2500 12.0310 135° Southeast 479 551 35,000  Level FlightAware
07:00AM 46.1820 12.1280 135° Southeast 475 547 35,000  Level FlightAware
07:01AM 46.1180 12.2200 135° Southeast 475 547 35,000  Level FlightAware
07:02AM 46.0500 12.3170 135° Southeast 475 547 35,000  Level FlightAware
07:03AM 45.9880 12.4060 135° Southeast 475 547 35,000  Level FlightAware
07:03AM 45.9230 12.4970 136° Southeast 475 547 35,000  Level FlightAware
07:04AM 45.8540 12.5960 135° Southeast 473 544 35,000  Level FlightAware
07:05AM 45.7890 12.6860 136° Southeast 472 543 35,000  Level FlightAware
07:05AM 45.7270 12.7740 135° Southeast 471 542 35,000  Level FlightAware
07:06AM 45.6570 12.8720 136° Southeast 471 542 35,000  Level FlightAware
07:07AM 45.5940 12.9590 136° Southeast 471 542 35,000  Level FlightAware
07:07AM 45.5240 13.0560 136° Southeast 471 542 35,000  Level FlightAware
07:08AM 45.4620 13.1430 135° Southeast 472 543 35,000  Level FlightAware
07:09AM 45.3950 13.2450 133° Southeast 474 545 35,000  Level FlightAware
07:09AM 45.3480 13.3270 129° Southeast 466 536 35,000  Level FlightAware
07:10AM 45.2910 13.4220 130° Southeast 464 534 35,000 60 Level FlightAware
07:11AM 45.2260 13.5320 130° Southeast 461 531 35,100 480 Climbing FlightAware
07:12AM 45.1390 13.6790 130° Southeast 478 550 35,900 840 Climbing FlightAware
07:13AM 45.0820 13.7750 130° Southeast 476 548 36,500 720 Climbing FlightAware
07:13AM 45.0170 13.8840 130° Southeast 480 552 37,000 300 Climbing FlightAware
07:14AM 44.9650 13.9840 126° Southeast 472 543 37,000  Level FlightAware
07:15AM 44.9080 14.0910 127° Southeast 476 548 37,000  Level FlightAware
07:16AM 44.8210 14.2550 127° Southeast 471 542 37,000  Level FlightAware
07:17AM 44.7660 14.3620 126° Southeast 470 541 37,000  Level FlightAware
07:17AM 44.7180 14.4520 127° Southeast 474 545 37,000  Level FlightAware
07:18AM 44.6580 14.5640 127° Southeast 481 554 37,000  Level FlightAware
07:19AM 44.5980 14.6770 127° Southeast 482 555 37,000  Level FlightAware
07:19AM 44.5380 14.7890 127° Southeast 483 556 37,000  Level FlightAware
07:20AM 44.4880 14.8820 127° Southeast 482 555 37,000  Level FlightAware
07:21AM 44.4320 14.9870 127° Southeast 482 555 37,000  Level FlightAware
07:21AM 44.3710 15.0990 127° Southeast 483 556 37,000  Level FlightAware
07:22AM 44.3170 15.1980 127° Southeast 483 556 37,000  Level FlightAware
07:23AM 44.2560 15.3100 127° Southeast 483 556 37,000  Level FlightAware
07:24AM 44.2010 15.4140 126° Southeast 482 555 37,000  Level FlightAware
07:24AM 44.1490 15.5070 128° Southeast 481 554 37,000  Level FlightAware
07:25AM 44.0860 15.6230 127° Southeast 480 552 37,000  Level FlightAware
07:26AM 44.0320 15.7180 128° Southeast 481 554 37,000  Level FlightAware
07:26AM 43.9710 15.8280 128° Southeast 481 554 37,000  Level FlightAware
07:27AM 43.9260 15.9090 128° Southeast 482 555 37,000  Level FlightAware
07:28AM 43.8550 16.0380 127° Southeast 481 554 37,000  Level FlightAware
07:28AM 43.8150 16.1090 128° Southeast 481 554 37,000  Level FlightAware
07:29AM 43.7600 16.2090 127° Southeast 481 554 37,000  Level FlightAware
07:30AM 43.6990 16.3150 128° Southeast 482 555 37,000  Level FlightAware
07:30AM 43.6510 16.4000 128° Southeast 483 556 37,000  Level FlightAware
07:31AM 43.5870 16.5150 128° Southeast 483 556 37,000  Level FlightAware
07:32AM 43.5320 16.6090 129° Southeast 484 557 37,000  Level FlightAware
07:32AM 43.4810 16.6990 128° Southeast 480 552 37,000  Level FlightAware
07:33AM 43.4150 16.8150 128° Southeast 484 557 37,000  Level FlightAware
07:34AM 43.3580 16.9120 129° Southeast 486 559 37,000  Level FlightAware
07:35AM 43.2950 17.0230 128° Southeast 484 557 37,000  Level FlightAware
07:35AM 43.2390 17.1190 129° Southeast 484 557 37,000  Level FlightAware
07:36AM 43.1780 17.2250 128° Southeast 484 557 37,000  Level FlightAware
07:37AM 43.1210 17.3210 129° Southeast 485 558 37,000  Level FlightAware
07:37AM 43.0660 17.4160 128° Southeast 485 558 37,000  Level FlightAware
07:38AM 43.0010 17.5260 129° Southeast 485 558 37,000  Level FlightAware
07:39AM 42.9380 17.6310 129° Southeast 486 559 37,000  Level FlightAware
07:39AM 42.8830 17.7270 128° Southeast 485 558 37,000  Level FlightAware
07:40AM 42.8260 17.8220 129° Southeast 485 558 37,000  Level FlightAware
07:41AM 42.7710 17.9150 129° Southeast 486 559 37,000  Level FlightAware
07:42AM 42.7100 18.0160 129° Southeast 486 559 37,000  Level FlightAware
07:42AM 42.6420 18.1300 129° Southeast 486 559 37,000  Level FlightAware
07:43AM 42.5850 18.2250 129° Southeast 486 559 37,000  Level FlightAware
07:44AM 42.5250 18.3150 132° Southeast 483 556 37,000  Level FlightAware
07:44AM 42.4570 18.4060 135° Southeast 481 554 37,000  Level FlightAware
07:45AM 42.3900 18.4910 137° Southeast 482 555 37,000  Level FlightAware
07:46AM 42.3240 18.5760 136° Southeast 483 556 37,000  Level FlightAware
07:46AM 42.2510 18.6700 136° Southeast 484 557 37,000  Level FlightAware
07:47AM 42.1850 18.7530 137° Southeast 486 559 37,000  Level FlightAware
07:48AM 42.1130 18.8470 136° Southeast 487 560 37,000  Level FlightAware
07:49AM 42.0470 18.9310 137° Southeast 488 562 37,000  Level FlightAware
07:49AM 41.9800 19.0150 137° Southeast 487 560 37,000  Level FlightAware
07:50AM 41.9160 19.0940 137° Southeast 487 560 37,000  Level FlightAware
07:51AM 41.8390 19.1920 137° Southeast 487 560 37,000  Level FlightAware
07:51AM 41.7740 19.2740 137° Southeast 487 560 37,000  Level FlightAware
07:52AM 41.7080 19.3560 137° Southeast 488 562 37,000  Level FlightAware
07:53AM 41.6360 19.4470 137° Southeast 489 563 37,000  Level FlightAware
07:53AM 41.5590 19.5420 137° Southeast 488 562 37,000  Level FlightAware
07:54AM 41.4920 19.6240 137° Southeast 487 560 37,000  Level FlightAware
07:55AM 41.4300 19.7010 137° Southeast 488 562 37,000  Level FlightAware
07:56AM 41.3550 19.7980 136° Southeast 492 566 37,000  Level FlightAware
07:56AM 41.2830 19.8970 134° Southeast 493 567 37,000  Level FlightAware
07:57AM 41.2190 19.9830 135° Southeast 493 567 37,000  Level FlightAware
07:58AM 41.1560 20.0670 135° Southeast 494 568 37,000  Level FlightAware
07:58AM 41.0820 20.1660 135° Southeast 495 570 37,000  Level FlightAware
07:59AM 41.0180 20.2520 135° Southeast 496 571 37,000  Level FlightAware
08:00AM 40.9420 20.3510 135° Southeast 497 572 37,000  Level FlightAware
08:00AM 40.8780 20.4370 135° Southeast 497 572 37,000  Level FlightAware
08:01AM 40.8140 20.5200 136° Southeast 497 572 37,000  Level FlightAware
08:02AM 40.7410 20.6170 135° Southeast 499 574 37,000  Level FlightAware
08:03AM 40.6760 20.7030 135° Southeast 500 575 37,000  Level FlightAware
08:03AM 40.6060 20.7930 136° Southeast 501 577 37,000  Level FlightAware
08:04AM 40.5410 20.8780 135° Southeast 501 577 37,000  Level FlightAware
08:05AM 40.4650 20.9730 136° Southeast 501 577 37,000  Level FlightAware
08:06AM 40.3790 21.0750 138° Southeast 500 575 37,000  Level FlightAware
08:06AM 40.3140 21.1710 132° Southeast 506 582 37,000  Level FlightAware
08:07AM 40.2220 21.3070 132° Southeast 504 580 37,000  Level FlightAware
08:08AM 40.1360 21.4310 132° Southeast 505 581 37,000  Level FlightAware
08:09AM 40.0680 21.5240 134° Southeast 505 581 37,000  Level FlightAware
08:10AM 40.0020 21.6190 132° Southeast 505 581 37,000  Level FlightAware
08:10AM 39.9340 21.7150 133° Southeast 506 582 37,000  Level FlightAware
08:11AM 39.8620 21.8190 132° Southeast 505 581 37,000  Level FlightAware
08:11AM 39.8160 21.8850 132° Southeast 504 580 37,000  Level FlightAware
08:12AM 39.7630 21.9610 132° Southeast 502 578 37,000  Level FlightAware
08:13AM 39.7010 22.0500 132° Southeast 501 577 37,000  Level FlightAware
08:13AM 39.6430 22.1330 132° Southeast 500 575 37,000  Level FlightAware
08:14AM 39.5910 22.2080 132° Southeast 501 577 37,000  Level FlightAware
08:15AM 39.5180 22.3100 133° Southeast 501 577 37,000  Level FlightAware
08:15AM 39.4590 22.3920 133° Southeast 502 578 37,000  Level FlightAware
08:16AM 39.3920 22.4870 132° Southeast 503 579 37,000  Level FlightAware
08:17AM 39.3270 22.5780 133° Southeast 504 580 37,000  Level FlightAware
08:17AM 39.2620 22.6690 133° Southeast 505 581 37,000  Level FlightAware
08:18AM 39.1880 22.7730 133° Southeast 507 583 37,000  Level FlightAware
08:19AM 39.1240 22.8640 132° Southeast 507 583 37,000  Level FlightAware
08:20AM 39.0530 22.9620 133° Southeast 508 585 37,000  Level FlightAware
08:20AM 38.9900 23.0480 133° Southeast 507 583 37,000  Level FlightAware
08:21AM 38.9250 23.1380 133° Southeast 508 585 37,000  Level FlightAware
08:22AM 38.8510 23.2400 133° Southeast 508 585 37,000  Level FlightAware
08:22AM 38.7880 23.3260 133° Southeast 508 585 37,000  Level FlightAware
08:23AM 38.7170 23.4250 133° Southeast 507 583 37,000  Level FlightAware
08:24AM 38.6520 23.5120 134° Southeast 508 585 37,000  Level FlightAware
08:24AM 38.5780 23.6130 133° Southeast 508 585 37,000  Level FlightAware
08:25AM 38.5140 23.7000 133° Southeast 509 586 37,000  Level FlightAware
08:26AM 38.4490 23.7880 133° Southeast 509 586 37,000  Level FlightAware
08:27AM 38.3770 23.8840 134° Southeast 510 587 37,000  Level FlightAware
08:27AM 38.3140 23.9690 133° Southeast 509 586 37,000  Level FlightAware
08:28AM 38.2480 24.0580 133° Southeast 509 586 37,000  Level FlightAware
08:29AM 38.1730 24.1580 134° Southeast 509 586 37,000  Level FlightAware
08:29AM 38.1110 24.2440 132° Southeast 511 588 37,000  Level FlightAware
08:30AM 38.0490 24.3540 126° Southeast 512 589 37,000  Level FlightAware
08:31AM 37.9940 24.4520 125° Southeast 512 589 37,000  Level FlightAware
08:31AM 37.9300 24.5630 126° Southeast 513 590 37,000  Level FlightAware
08:32AM 37.8730 24.6580 127° Southeast 513 590 37,000  Level FlightAware
08:33AM 37.8160 24.7550 127° Southeast 514 592 37,000  Level FlightAware
08:34AM 37.7550 24.8630 126° Southeast 514 592 37,000  Level FlightAware
08:34AM 37.6990 24.9600 126° Southeast 516 594 37,000  Level FlightAware
08:35AM 37.6340 25.0720 126° Southeast 517 595 37,000  Level FlightAware
08:36AM 37.5790 25.1680 126° Southeast 519 597 37,000  Level FlightAware
08:36AM 37.5220 25.2660 126° Southeast 521 600 37,000  Level FlightAware
08:37AM 37.4580 25.3760 126° Southeast 522 601 37,000  Level FlightAware
08:38AM 37.4000 25.4770 126° Southeast 522 601 37,000  Level FlightAware
08:38AM 37.3430 25.5750 126° Southeast 523 602 37,000  Level FlightAware
08:39AM 37.2810 25.6820 126° Southeast 523 602 37,000  Level FlightAware
08:40AM 37.2240 25.7780 127° Southeast 523 602 37,000  Level FlightAware
08:40AM 37.1650 25.8780 126° Southeast 523 602 37,000  Level FlightAware
08:41AM 37.1050 25.9800 126° Southeast 524 603 37,000  Level FlightAware
08:42AM 37.0470 26.0780 127° Southeast 524 603 37,000  Level FlightAware
08:43AM 36.9790 26.1920 127° Southeast 525 604 37,000  Level FlightAware
08:43AM 36.9200 26.2900 127° Southeast 526 605 37,000  Level FlightAware
08:44AM 36.8530 26.4040 126° Southeast 525 604 37,000  Level FlightAware
08:45AM 36.7950 26.4990 127° Southeast 527 606 37,000  Level FlightAware
08:45AM 36.7380 26.5940 127° Southeast 528 608 37,000  Level FlightAware
08:46AM 36.6710 26.7060 127° Southeast 527 606 37,000  Level FlightAware
08:47AM 36.6120 26.8030 127° Southeast 526 605 37,000  Level FlightAware
08:48AM 36.5480 26.9090 127° Southeast 524 603 37,000  Level FlightAware
08:48AM 36.4910 27.0030 127° Southeast 524 603 37,000  Level FlightAware
08:49AM 36.4290 27.1060 127° Southeast 524 603 37,000  Level FlightAware
08:50AM 36.3690 27.2040 127° Southeast 524 603 37,000  Level FlightAware
08:50AM 36.3110 27.2970 128° Southeast 523 602 37,000  Level FlightAware
08:51AM 36.2380 27.4170 127° Southeast 524 603 37,000  Level FlightAware
08:52AM 36.1930 27.4880 128° Southeast 525 604 37,000  Level FlightAware
08:52AM 36.1360 27.5820 127° Southeast 525 604 37,000  Level FlightAware
08:53AM 36.0740 27.6840 127° Southeast 525 604 37,000  Level FlightAware
08:54AM 36.0240 27.7660 127° Southeast 525 604 37,000  Level FlightAware
08:54AM 35.9750 27.8470 127° Southeast 525 604 37,000 1,560 Level FlightAware
08:55AM 35.8860 27.9810 129° Southeast 523 602 39,000 1,380 Climbing FlightAware
08:56AM 35.8100 28.1040 127° Southeast 523 602 39,000  Level FlightAware
08:57AM 35.7450 28.2050 128° Southeast 523 602 39,000  Level FlightAware
08:57AM 35.6850 28.3020 127° Southeast 525 604 39,000  Level FlightAware
08:58AM 35.6170 28.4070 129° Southeast 526 605 39,000  Level FlightAware
08:59AM 35.5570 28.5020 128° Southeast 528 608 39,000  Level FlightAware
08:59AM 35.4950 28.5990 128° Southeast 530 610 39,000  Level FlightAware
09:00AM 35.4300 28.7010 128° Southeast 532 612 39,000  Level FlightAware
09:01AM 35.3690 28.7980 128° Southeast 533 613 39,000  Level FlightAware
09:02AM 35.2980 28.9080 128° Southeast 534 615 39,000  Level FlightAware
09:02AM 35.2390 28.9980 129° Southeast 530 610 39,000  Level FlightAware
09:03AM 35.1590 29.1210 128° Southeast 536 617 39,000  Level FlightAware
09:04AM 35.0910 29.2260 128° Southeast 536 617 39,000  Level FlightAware
09:04AM 35.0340 29.3140 128° Southeast 536 617 39,000  Level FlightAware
09:05AM 34.9490 29.4470 128° Southeast 539 620 39,000  Level FlightAware
09:06AM 34.8690 29.5660 129° Southeast 543 625 39,000  Level FlightAware
09:08AM 34.6980 29.8260 129° Southeast 544 626 39,000  Level FlightAware
09:09AM 34.6120 29.9600 128° Southeast 544 626 39,000  Level FlightAware
09:10AM 34.5470 30.0740 125° Southeast 546 628 39,000  Level FlightAware
09:10AM 34.4950 30.1830 120° Southeast 547 629 39,000  Level FlightAware
09:11AM 34.4390 30.2990 120° Southeast 547 629 39,000  Level FlightAware
09:12AM 34.3880 30.4080 120° Southeast 546 628 39,000  Level FlightAware
09:12AM 34.3420 30.5030 120° Southeast 547 629 39,000  Level FlightAware
09:13AM 34.2960 30.5960 121° Southeast 547 629 39,000  Level FlightAware
09:14AM 34.2480 30.6960 120° Southeast 549 632 39,000  Level FlightAware
09:14AM 34.1960 30.8040 120° Southeast 549 632 39,000  Level FlightAware
09:15AM 34.1420 30.9150 120° Southeast 549 632 39,000  Level FlightAware
09:16AM 34.0820 31.0370 121° Southeast 546 628 39,000  Level FlightAware
09:17AM 34.0180 31.1660 121° Southeast 546 628 39,000  Level FlightAware
09:18AM 33.9460 31.3130 121° Southeast 545 627 39,000  Level FlightAware
09:19AM 33.8350 31.5370 121° Southeast 547 629 39,000  Level FlightAware
09:20AM 33.7820 31.6450 121° Southeast 548 631 39,000  Level FlightAware
09:20AM 33.7240 31.7610 121° Southeast 548 631 39,000  Level FlightAware
09:21AM 33.6700 31.8690 121° Southeast 549 632 39,000  Level FlightAware
09:22AM 33.6190 31.9690 121° Southeast 549 632 39,000  Level FlightAware
09:22AM 33.5720 32.0640 121° Southeast 550 633 39,000 -180 Level FlightAware
09:23AM 33.5140 32.1790 121° Southeast 549 632 38,800 -780 Descending FlightAware
09:24AM 33.4590 32.2860 122° Southeast 555 639 37,900 -1,080 Descending FlightAware
09:24AM 33.3990 32.4040 121° Southeast 546 628 37,300 -1,140 Descending FlightAware
09:25AM 33.3480 32.5050 121° Southeast 534 615 36,300 -1,800 Descending FlightAware
09:26AM 33.3040 32.5930 121° Southeast 526 605 35,100 -1,860 Descending FlightAware
09:27AM 33.2110 32.7740 122° Southeast 497 572 32,900 -1,740 Descending FlightAware
09:28AM 33.1590 32.8750 122° Southeast 478 550 31,700 -1,800 Descending FlightAware
09:28AM 33.1140 32.9620 122° Southeast 469 540 30,400 -2,220 Descending FlightAware
09:29AM 33.0550 33.0760 122° Southeast 472 543 28,600 -2,280 Descending FlightAware
09:30AM 33.0090 33.1640 122° Southeast 475 547 27,200 -2,100 Descending FlightAware
09:30AM 32.9640 33.2490 122° Southeast 463 533 25,800 -2,100 Descending FlightAware
09:31AM 32.9130 33.3470 122° Southeast 446 513 24,300 -1,980 Descending FlightAware
09:32AM 32.8700 33.4290 122° Southeast 431 496 23,000 -1,980 Descending FlightAware
09:33AM 32.8230 33.5200 122° Southeast 414 476 21,500 -1,860 Descending FlightAware
09:33AM 32.7960 33.5730 121° Southeast 405 466 20,700 -1,680 Descending FlightAware
09:34AM 32.7740 33.6690 105° East 387 445 19,400 -1,740 Descending FlightAware
09:35AM 32.7670 33.7540 96° East 373 429 18,300 -2,160 Descending FlightAware
09:35AM 32.7610 33.8440 95° East 381 438 16,400 -2,700 Descending FlightAware
09:36AM 32.7550 33.9260 95° East 367 422 14,500 -2,520 Descending FlightAware
09:37AM 32.7500 34.0090 94° East 353 406 13,100 -1,920 Descending FlightAware
09:37AM 32.7420 34.0660 99° East 347 399 12,300 -1,380 Descending FlightAware
09:37AM 32.7290 34.0870 126° Southeast 339 390 12,100 -840 Descending FlightAware
09:38AM 32.7090 34.1040 144° Southeast 325 374 11,900 -900 Descending FlightAware
09:38AM 32.6540 34.1080 176° South 305 351 11,300 -1,080 Descending FlightAware
09:39AM 32.6080 34.1060 182° South 297 342 10,600 -1,380 Descending FlightAware
09:39AM 32.5550 34.1050 181° South 293 337 9,700 -1,440 Descending FlightAware
09:40AM 32.5300 34.1040 182° South 292 336 9,300 -1,140 Descending FlightAware
09:41AM 32.4700 34.1170 170° South 296 341 8,500 -1,020 Descending FlightAware
09:41AM 32.4590 34.1270 143° Southeast 294 338 8,400 -300 Descending FlightAware
09:41AM 32.4330 34.1630 131° Southeast 288 331 8,300 -240 Descending FlightAware
09:42AM 32.4130 34.1920 129° Southeast 287 330 8,200 -300 Descending FlightAware
09:42AM 32.3830 34.2370 128° Southeast 286 329 8,000 -360 Descending FlightAware
09:42AM 32.3710 34.2540 130° Southeast 285 328 7,900 -300 Descending FlightAware
09:43AM 32.3530 34.2820 127° Southeast 284 327 7,800 -360 Descending FlightAware
09:43AM 32.3420 34.2980 129° Southeast 285 328 7,700 -420 Descending FlightAware
09:44AM 32.3110 34.3410 130° Southeast 282 325 7,500 -300 Descending FlightAware
09:44AM 32.2940 34.3660 129° Southeast 282 325 7,400 -120 Descending FlightAware
09:44AM 32.2740 34.3960 128° Southeast 282 325 7,400  Level FlightAware
09:47AM 32.1077 34.6594 125° Southeast  Level FlightAware Approximate
09:48AM 32.0411 34.7981 125° Southeast  Level FlightAware Approximate
09:49AM 32.0000 34.8667 125° Southeast  Level FlightAware Approximate
09:50AM 32.0095 34.8769 125° Southeast  Level Estimated
09:51AM 32.0095 34.8769 125° Southeast  Level Estimated
09:52AM 32.0095 34.8769 125° Southeast  Level Estimated
09:53AM 32.0095 34.8769 125° Southeast  Level Estimated
09:54AM 32.0095 34.8769 125° Southeast  Level Estimated
09:55AM 32.0095 34.8769 125° Southeast  Level Estimated
09:56AM 32.0095 34.8769 125° Southeast  Level Estimated